createdAt,value
2018-08-20T00:02:28.006Z,24.60
2018-08-20T00:05:00.363Z,24.60
2018-08-20T00:07:32.304Z,24.60
2018-08-20T00:10:04.783Z,24.60
2018-08-20T00:12:36.384Z,24.70
2018-08-20T00:15:09.263Z,24.70
2018-08-20T00:17:41.244Z,24.70
2018-08-20T00:20:13.463Z,24.70
2018-08-20T00:22:45.863Z,24.60
2018-08-20T00:25:19.343Z,24.60
2018-08-20T00:27:51.023Z,24.70
2018-08-20T00:30:23.524Z,24.70
2018-08-20T00:32:56.683Z,24.60
2018-08-20T00:35:28.563Z,24.60
2018-08-20T00:38:00.584Z,24.60
2018-08-20T00:40:32.243Z,24.50
2018-08-20T00:43:04.263Z,24.50
2018-08-20T00:45:37.003Z,24.50
2018-08-20T00:48:08.923Z,24.50
2018-08-20T00:50:41.463Z,24.50
2018-08-20T00:53:13.983Z,24.40
2018-08-20T00:55:45.784Z,24.40
2018-08-20T00:58:17.863Z,24.40
2018-08-20T01:00:49.763Z,24.40
2018-08-20T01:03:22.063Z,24.30
2018-08-20T01:05:53.545Z,24.30
2018-08-20T01:08:25.963Z,24.30
2018-08-20T01:10:57.564Z,24.30
2018-08-20T01:13:28.984Z,24.30
2018-08-20T01:16:01.084Z,24.30
2018-08-20T01:18:33.444Z,24.20
2018-08-20T01:21:06.184Z,24.20
2018-08-20T01:23:37.643Z,24.10
2018-08-20T01:26:09.643Z,24.20
2018-08-20T01:28:41.445Z,24.10
2018-08-20T01:31:13.683Z,24.10
2018-08-20T01:33:45.003Z,24.10
2018-08-20T01:36:17.924Z,24.10
2018-08-20T01:38:52.123Z,24.10
2018-08-20T01:41:25.344Z,24.10
2018-08-20T01:43:58.124Z,24.10
2018-08-20T01:46:29.983Z,24.20
2018-08-20T01:49:02.563Z,24.10
2018-08-20T01:51:34.723Z,24.10
2018-08-20T01:54:06.563Z,24.00
2018-08-20T01:56:38.703Z,24.00
2018-08-20T01:59:10.563Z,23.90
2018-08-20T02:01:43.207Z,23.90
2018-08-20T02:04:15.483Z,23.80
2018-08-20T02:06:47.203Z,23.80
2018-08-20T02:09:19.826Z,23.80
2018-08-20T02:11:52.863Z,23.80
2018-08-20T02:14:24.923Z,23.70
2018-08-20T02:16:56.984Z,23.70
2018-08-20T02:19:28.803Z,23.70
2018-08-20T02:22:00.623Z,23.70
2018-08-20T02:24:32.803Z,23.80
2018-08-20T02:27:05.603Z,23.80
2018-08-20T02:29:38.604Z,23.80
2018-08-20T02:32:10.268Z,23.80
2018-08-20T02:34:42.825Z,23.80
2018-08-20T02:37:15.329Z,23.80
2018-08-20T02:39:47.343Z,23.70
2018-08-20T02:42:19.568Z,23.80
2018-08-20T02:44:51.363Z,23.80
2018-08-20T02:47:23.163Z,23.80
2018-08-20T02:49:55.123Z,23.80
2018-08-20T02:52:27.003Z,23.80
2018-08-20T02:54:59.263Z,23.70
2018-08-20T02:57:30.883Z,23.70
2018-08-20T03:00:03.144Z,23.70
2018-08-20T03:02:34.523Z,23.80
2018-08-20T03:05:07.684Z,23.80
2018-08-20T03:07:39.603Z,23.80
2018-08-20T03:10:13.924Z,23.80
2018-08-20T03:12:45.943Z,23.80
2018-08-20T03:15:18.083Z,23.90
2018-08-20T03:17:49.943Z,23.90
2018-08-20T03:20:21.784Z,23.80
2018-08-20T03:22:52.686Z,23.70
2018-08-20T03:25:25.025Z,23.70
2018-08-20T03:27:56.963Z,23.70
2018-08-20T03:30:29.404Z,23.70
2018-08-20T03:33:00.524Z,23.70
2018-08-20T03:35:32.224Z,23.70
2018-08-20T03:38:04.403Z,23.50
2018-08-20T03:40:36.124Z,23.40
2018-08-20T03:43:08.323Z,23.50
2018-08-20T03:45:40.064Z,23.40
2018-08-20T03:48:12.084Z,23.40
2018-08-20T03:50:44.224Z,23.50
2018-08-20T03:53:15.883Z,23.50
2018-08-20T03:55:48.543Z,23.50
2018-08-20T03:58:19.824Z,23.50
2018-08-20T04:00:52.306Z,23.40
2018-08-20T04:03:24.603Z,23.50
2018-08-20T04:05:56.543Z,23.50
2018-08-20T04:08:29.344Z,23.50
2018-08-20T04:11:01.643Z,23.60
2018-08-20T04:13:33.883Z,23.60
2018-08-20T04:16:06.147Z,23.50
2018-08-20T04:18:37.563Z,23.50
2018-08-20T04:21:09.983Z,23.50
2018-08-20T04:23:41.731Z,23.50
2018-08-20T04:26:14.223Z,23.60
2018-08-20T04:28:47.463Z,23.50
2018-08-20T04:31:19.363Z,23.50
2018-08-20T04:33:51.883Z,23.50
2018-08-20T04:36:23.905Z,23.60
2018-08-20T04:38:56.163Z,23.60
2018-08-20T04:41:28.643Z,23.60
2018-08-20T04:44:00.003Z,23.60
2018-08-20T04:46:32.005Z,23.60
2018-08-20T04:49:05.023Z,23.60
2018-08-20T04:51:36.742Z,23.60
2018-08-20T04:54:09.008Z,23.60
2018-08-20T04:56:42.223Z,23.60
2018-08-20T04:59:13.664Z,23.60
2018-08-20T05:01:45.943Z,23.60
2018-08-20T05:04:17.704Z,23.50
2018-08-20T05:06:50.123Z,23.50
2018-08-20T05:09:22.903Z,23.40
2018-08-20T05:11:55.106Z,23.30
2018-08-20T05:14:26.523Z,23.30
2018-08-20T05:16:57.803Z,23.40
2018-08-20T05:19:29.543Z,23.40
2018-08-20T05:22:01.263Z,23.40
2018-08-20T05:24:33.643Z,23.40
2018-08-20T05:27:05.708Z,23.50
2018-08-20T05:29:36.603Z,23.50
2018-08-20T05:32:08.786Z,23.50
2018-08-20T05:34:41.003Z,23.50
2018-08-20T05:37:12.483Z,23.60
2018-08-20T05:39:44.003Z,23.60
2018-08-20T05:42:16.147Z,23.60
2018-08-20T05:44:48.422Z,23.60
2018-08-20T05:47:19.562Z,23.60
2018-08-20T05:49:51.863Z,23.60
2018-08-20T05:52:24.016Z,23.70
2018-08-20T05:54:56.003Z,23.70
2018-08-20T05:57:29.062Z,23.70
2018-08-20T06:00:01.063Z,23.70
2018-08-20T06:02:33.123Z,23.60
2018-08-20T06:05:06.383Z,23.70
2018-08-20T06:07:39.303Z,23.70
2018-08-20T06:10:11.343Z,23.80
2018-08-20T06:12:43.565Z,23.80
2018-08-20T06:15:16.484Z,23.90
2018-08-20T06:17:48.123Z,23.90
2018-08-20T06:20:19.984Z,23.90
2018-08-20T06:22:51.865Z,23.90
2018-08-20T06:25:24.043Z,24.00
2018-08-20T06:27:56.604Z,24.00
2018-08-20T06:30:28.648Z,24.10
2018-08-20T06:33:00.803Z,24.10
2018-08-20T06:35:32.648Z,24.20
2018-08-20T06:38:04.549Z,24.10
2018-08-20T06:40:36.563Z,24.10
2018-08-20T06:43:08.324Z,24.10
2018-08-20T06:45:40.465Z,24.20
2018-08-20T06:48:12.545Z,24.30
2018-08-20T06:50:44.949Z,24.40
2018-08-20T06:53:16.563Z,24.50
2018-08-20T06:55:47.763Z,24.50
2018-08-20T06:58:19.146Z,24.60
2018-08-20T07:00:51.737Z,24.70
2018-08-20T07:03:23.364Z,24.70
2018-08-20T07:05:55.704Z,24.70
2018-08-20T07:08:27.283Z,24.70
2018-08-20T07:11:00.306Z,24.90
2018-08-20T07:13:36.905Z,24.90
2018-08-20T07:16:09.305Z,25.00
2018-08-20T07:18:41.786Z,25.00
2018-08-20T07:21:14.303Z,24.90
2018-08-20T07:23:45.812Z,25.00
2018-08-20T07:26:18.523Z,25.10
2018-08-20T07:28:50.743Z,25.10
2018-08-20T07:31:22.485Z,25.10
2018-08-20T07:33:53.943Z,25.20
2018-08-20T07:36:26.102Z,25.20
2018-08-20T07:38:58.273Z,25.40
2018-08-20T07:41:30.083Z,25.50
2018-08-20T07:44:02.203Z,25.60
2018-08-20T07:46:33.582Z,25.70
2018-08-20T07:49:09.284Z,25.70
2018-08-20T07:51:41.023Z,25.90
2018-08-20T07:54:13.263Z,26.00
2018-08-20T07:56:45.066Z,26.00
2018-08-20T07:59:17.643Z,26.00
2018-08-20T08:01:49.663Z,26.00
2018-08-20T08:04:21.463Z,26.10
2018-08-20T08:06:54.025Z,26.20
2018-08-20T08:09:25.293Z,26.30
2018-08-20T08:11:58.163Z,26.40
2018-08-20T08:14:29.743Z,26.40
2018-08-20T08:17:02.738Z,26.40
2018-08-20T08:19:34.564Z,26.50
2018-08-20T08:22:06.583Z,26.40
2018-08-20T08:24:38.783Z,26.40
2018-08-20T08:27:10.563Z,26.30
2018-08-20T08:29:43.164Z,26.50
2018-08-20T08:32:15.063Z,26.40
2018-08-20T08:34:46.943Z,26.50
2018-08-20T08:37:18.691Z,26.60
2018-08-20T08:39:50.963Z,26.50
2018-08-20T08:42:23.464Z,26.50
2018-08-20T08:44:55.251Z,26.50
2018-08-20T08:47:27.863Z,26.60
2018-08-20T08:50:00.684Z,26.50
2018-08-20T08:52:32.503Z,26.50
2018-08-20T08:55:05.166Z,26.60
2018-08-20T08:57:38.363Z,26.60
2018-08-20T09:00:20.784Z,26.60
2018-08-20T09:02:54.128Z,26.50
2018-08-20T09:05:25.363Z,26.50
2018-08-20T09:07:58.003Z,26.60
2018-08-20T09:10:30.772Z,26.50
2018-08-20T09:13:02.573Z,26.50
2018-08-20T09:15:34.723Z,26.60
2018-08-20T09:18:06.084Z,26.60
2018-08-20T09:20:38.684Z,26.60
2018-08-20T09:23:11.425Z,26.70
2018-08-20T09:25:43.203Z,26.70
2018-08-20T09:28:15.592Z,26.70
2018-08-20T09:30:48.564Z,26.80
2018-08-20T09:33:19.788Z,26.80
2018-08-20T09:35:51.725Z,26.70
2018-08-20T09:38:23.244Z,26.70
2018-08-20T09:40:54.443Z,26.70
2018-08-20T09:43:26.884Z,26.70
2018-08-20T09:45:58.664Z,26.70
2018-08-20T09:48:31.103Z,26.70
2018-08-20T09:51:03.523Z,26.80
2018-08-20T09:53:34.884Z,26.80
2018-08-20T09:56:08.230Z,26.80
2018-08-20T09:58:40.863Z,26.80
2018-08-20T10:01:12.804Z,27.00
2018-08-20T10:03:46.764Z,27.10
2018-08-20T10:06:19.483Z,27.20
2018-08-20T10:08:53.079Z,27.30
2018-08-20T10:11:32.290Z,27.40
2018-08-20T10:14:06.040Z,27.40
2018-08-20T10:16:38.225Z,27.40
2018-08-20T10:19:10.724Z,27.40
2018-08-20T10:21:43.064Z,27.50
2018-08-20T10:24:14.886Z,27.50
2018-08-20T10:26:48.048Z,27.50
2018-08-20T10:29:19.691Z,27.60
2018-08-20T10:31:51.845Z,27.70
2018-08-20T10:34:24.064Z,27.80
2018-08-20T10:36:56.164Z,27.90
2018-08-20T10:39:28.105Z,28.10
2018-08-20T10:42:00.084Z,28.20
2018-08-20T10:44:35.224Z,28.30
2018-08-20T10:47:06.744Z,28.50
2018-08-20T10:49:38.985Z,28.70
2018-08-20T10:52:11.204Z,28.80
2018-08-20T10:54:43.945Z,28.90
2018-08-20T10:57:17.044Z,28.90
2018-08-20T10:59:48.538Z,29.00
2018-08-20T11:02:20.705Z,29.10
2018-08-20T11:04:55.283Z,29.10
2018-08-20T11:07:27.884Z,29.30
2018-08-20T11:10:00.398Z,29.40
2018-08-20T11:12:32.704Z,29.50
2018-08-20T11:15:04.604Z,29.70
2018-08-20T11:17:37.344Z,29.90
2018-08-20T11:20:11.084Z,30.00
2018-08-20T11:22:43.264Z,30.20
2018-08-20T11:25:16.447Z,30.20
2018-08-20T11:27:49.024Z,30.40
2018-08-20T11:30:20.965Z,30.50
2018-08-20T11:32:52.607Z,30.50
2018-08-20T11:35:25.364Z,30.40
2018-08-20T11:37:57.924Z,30.30
2018-08-20T11:40:30.873Z,30.50
2018-08-20T11:43:04.117Z,30.60
2018-08-20T11:45:35.351Z,30.70
2018-08-20T11:48:07.584Z,30.70
2018-08-20T11:50:41.684Z,30.70
2018-08-20T11:53:15.384Z,30.80
2018-08-20T11:55:47.532Z,30.70
2018-08-20T11:58:19.864Z,30.70
2018-08-20T12:00:52.824Z,30.70
2018-08-20T12:03:26.564Z,30.80
2018-08-20T12:05:58.444Z,30.90
2018-08-20T12:08:30.044Z,31.00
2018-08-20T12:11:01.708Z,31.20
2018-08-20T12:13:33.608Z,31.10
2018-08-20T12:16:05.584Z,31.00
2018-08-20T12:18:37.425Z,31.00
2018-08-20T12:21:09.445Z,31.20
2018-08-20T12:23:42.103Z,31.40
2018-08-20T12:26:13.924Z,31.30
2018-08-20T12:28:48.164Z,31.20
2018-08-20T12:31:21.364Z,31.20
2018-08-20T12:33:54.665Z,31.20
2018-08-20T12:36:25.903Z,31.30
2018-08-20T12:38:58.304Z,31.30
2018-08-20T12:41:30.044Z,31.20
2018-08-20T12:44:01.364Z,31.50
2018-08-20T12:47:02.153Z,31.60
2018-08-20T12:49:35.163Z,31.70
2018-08-20T12:52:07.543Z,31.80
2018-08-20T12:54:40.943Z,31.70
2018-08-20T12:57:13.284Z,32.00
2018-08-20T12:59:48.984Z,32.10
2018-08-20T13:02:20.664Z,32.10
2018-08-20T13:04:53.123Z,32.10
2018-08-20T13:07:25.604Z,32.10
2018-08-20T13:09:56.983Z,32.10
2018-08-20T13:12:29.604Z,32.10
2018-08-20T13:15:02.243Z,32.50
2018-08-20T13:17:34.108Z,32.70
2018-08-20T13:20:05.605Z,32.80
2018-08-20T13:22:38.063Z,33.00
2018-08-20T13:25:11.204Z,32.90
2018-08-20T13:27:43.684Z,33.00
2018-08-20T13:30:16.143Z,33.10
2018-08-20T13:32:46.545Z,33.30
2018-08-20T13:35:18.724Z,33.40
2018-08-20T13:37:50.784Z,33.50
2018-08-20T13:40:23.065Z,33.60
2018-08-20T13:42:55.084Z,33.80
2018-08-20T13:45:27.484Z,33.90
2018-08-20T13:47:59.704Z,33.90
2018-08-20T13:50:32.406Z,33.70
2018-08-20T13:53:04.464Z,33.70
2018-08-20T13:55:36.827Z,33.90
2018-08-20T13:58:08.504Z,33.90
2018-08-20T14:00:41.226Z,33.80
2018-08-20T14:03:14.731Z,33.80
2018-08-20T14:05:46.124Z,33.70
2018-08-20T14:08:18.229Z,33.70
2018-08-20T14:10:49.504Z,33.80
2018-08-20T14:13:21.944Z,33.70
2018-08-20T14:15:53.727Z,33.60
2018-08-20T14:18:26.404Z,33.60
2018-08-20T14:21:08.003Z,33.60
2018-08-20T14:23:40.666Z,33.40
2018-08-20T14:26:12.364Z,33.10
2018-08-20T14:28:42.984Z,32.90
2018-08-20T14:31:14.524Z,32.50
2018-08-20T14:33:47.004Z,32.40
2018-08-20T14:36:18.719Z,32.30
2018-08-20T14:38:51.764Z,32.20
2018-08-20T14:41:23.564Z,31.90
2018-08-20T14:43:55.423Z,31.70
2018-08-20T14:46:28.164Z,31.60
2018-08-20T14:48:59.564Z,31.40
2018-08-20T14:51:31.829Z,31.30
2018-08-20T14:54:03.644Z,31.20
2018-08-20T14:56:35.424Z,31.10
2018-08-20T14:59:07.644Z,31.10
2018-08-20T15:01:39.867Z,30.90
2018-08-20T15:04:12.385Z,30.80
2018-08-20T15:07:00.504Z,30.70
2018-08-20T15:09:32.906Z,30.60
2018-08-20T15:12:04.384Z,30.50
2018-08-20T15:14:36.501Z,30.50
2018-08-20T15:17:08.364Z,30.40
2018-08-20T15:19:39.505Z,30.40
2018-08-20T15:22:11.184Z,30.40
2018-08-20T15:24:43.664Z,30.40
2018-08-20T15:27:15.626Z,30.30
2018-08-20T15:29:47.304Z,30.30
2018-08-20T15:32:19.142Z,30.30
2018-08-20T15:34:50.765Z,30.20
2018-08-20T15:37:22.949Z,30.10
2018-08-20T15:39:55.044Z,30.00
2018-08-20T15:42:26.684Z,30.00
2018-08-20T15:44:58.425Z,30.00
2018-08-20T15:47:30.465Z,30.00
2018-08-20T15:50:03.567Z,30.10
2018-08-20T15:52:35.304Z,30.10
2018-08-20T15:55:07.966Z,30.00
2018-08-20T15:57:39.963Z,30.00
2018-08-20T16:00:14.644Z,30.00
2018-08-20T16:02:47.264Z,29.80
2018-08-20T16:05:19.944Z,29.80
2018-08-20T16:07:53.544Z,29.90
2018-08-20T16:10:25.232Z,29.90
2018-08-20T16:12:56.876Z,29.90
2018-08-20T16:15:29.584Z,29.90
2018-08-20T16:18:01.444Z,29.90
2018-08-20T16:20:33.465Z,29.80
2018-08-20T16:23:04.884Z,29.80
2018-08-20T16:25:37.624Z,29.90
2018-08-20T16:28:09.324Z,29.80
2018-08-20T16:30:42.664Z,29.70
2018-08-20T16:33:14.773Z,29.70
2018-08-20T16:35:45.906Z,29.70
2018-08-20T16:38:18.904Z,29.70
2018-08-20T16:40:50.703Z,29.60
2018-08-20T16:43:22.803Z,29.60
2018-08-20T16:45:55.143Z,29.60
2018-08-20T16:48:27.043Z,29.70
2018-08-20T16:50:59.096Z,29.60
2018-08-20T16:53:31.364Z,29.60
2018-08-20T16:56:03.503Z,29.60
2018-08-20T16:58:36.543Z,29.50
2018-08-20T17:01:11.564Z,29.50
2018-08-20T17:03:43.307Z,29.50
2018-08-20T17:06:15.184Z,29.50
2018-08-20T17:08:48.684Z,29.50
2018-08-20T17:11:21.704Z,29.50
2018-08-20T17:13:53.745Z,29.50
2018-08-20T17:16:25.344Z,29.40
2018-08-20T17:18:57.204Z,29.40
2018-08-20T17:21:29.744Z,29.40
2018-08-20T17:24:02.091Z,29.40
2018-08-20T17:26:34.165Z,29.40
2018-08-20T17:29:12.204Z,29.40
2018-08-20T17:31:44.204Z,29.40
2018-08-20T17:34:16.424Z,29.30
2018-08-20T17:36:48.165Z,29.40
2018-08-20T17:39:20.305Z,29.30
2018-08-20T17:41:52.185Z,29.30
2018-08-20T17:44:25.122Z,29.30
2018-08-20T17:46:56.925Z,29.30
2018-08-20T17:49:30.641Z,29.20
2018-08-20T17:52:02.565Z,29.20
2018-08-20T17:54:35.027Z,29.20
2018-08-20T17:57:06.404Z,29.20
2018-08-20T17:59:38.624Z,29.20
2018-08-20T18:02:13.745Z,29.10
2018-08-20T18:04:45.592Z,29.10
2018-08-20T18:07:17.910Z,29.00
2018-08-20T18:09:50.265Z,29.00
2018-08-20T18:12:22.524Z,28.90
2018-08-20T18:14:59.704Z,28.90
2018-08-20T18:17:31.440Z,28.80
2018-08-20T18:20:03.744Z,28.70
2018-08-20T18:22:35.424Z,28.60
2018-08-20T18:25:07.524Z,28.50
2018-08-20T18:27:43.287Z,28.40
2018-08-20T18:30:17.352Z,28.30
2018-08-20T18:32:49.427Z,28.20
2018-08-20T18:35:33.763Z,28.10
2018-08-20T18:38:05.386Z,28.10
2018-08-20T18:40:37.244Z,27.90
2018-08-20T18:43:08.964Z,27.80
2018-08-20T18:45:41.164Z,27.80
2018-08-20T18:48:12.984Z,27.70
2018-08-20T18:50:46.125Z,27.60
2018-08-20T18:53:19.664Z,27.60
2018-08-20T18:56:01.265Z,27.60
2018-08-20T18:58:35.345Z,27.50
2018-08-20T19:01:07.906Z,27.50
2018-08-20T19:03:46.064Z,27.50
2018-08-20T19:06:19.026Z,27.50
2018-08-20T19:08:51.484Z,27.40
2018-08-20T19:11:22.424Z,27.30
2018-08-20T19:14:00.525Z,27.30
2018-08-20T19:16:38.504Z,27.30
2018-08-20T19:19:11.305Z,27.30
2018-08-20T19:21:43.925Z,27.20
2018-08-20T19:24:15.184Z,27.20
2018-08-20T19:26:47.335Z,27.10
2018-08-20T19:29:29.245Z,27.00
2018-08-20T19:32:01.565Z,27.00
2018-08-20T19:34:33.347Z,27.00
2018-08-20T19:37:05.145Z,27.00
2018-08-20T19:39:37.325Z,27.00
2018-08-20T19:42:09.904Z,27.00
2018-08-20T19:44:43.564Z,26.90
2018-08-20T19:47:16.265Z,27.00
2018-08-20T19:49:48.305Z,26.90
2018-08-20T19:52:20.498Z,26.90
2018-08-20T19:54:56.685Z,26.80
2018-08-20T19:57:29.128Z,26.80
2018-08-20T20:00:01.325Z,26.80
2018-08-20T20:02:33.448Z,26.80
2018-08-20T20:05:06.106Z,26.70
2018-08-20T20:07:38.765Z,26.80
2018-08-20T20:10:13.745Z,26.70
2018-08-20T20:13:01.622Z,26.60
2018-08-20T20:15:37.544Z,26.60
2018-08-20T20:18:09.205Z,26.50
2018-08-20T20:20:41.564Z,26.50
2018-08-20T20:23:13.125Z,26.50
2018-08-20T20:25:45.724Z,26.40
2018-08-20T20:28:17.264Z,26.50
2018-08-20T20:30:48.525Z,26.50
2018-08-20T20:33:20.145Z,26.50
2018-08-20T20:35:52.145Z,26.50
2018-08-20T20:38:24.155Z,26.30
2018-08-20T20:40:56.864Z,26.10
2018-08-20T20:43:33.585Z,26.10
2018-08-20T20:46:05.965Z,26.00
2018-08-20T20:48:38.465Z,26.00
2018-08-20T20:51:11.404Z,26.00
2018-08-20T20:53:43.066Z,25.90
2018-08-20T20:56:14.627Z,26.00
2018-08-20T20:58:46.665Z,26.00
2018-08-20T21:01:18.552Z,26.00
2018-08-20T21:03:51.264Z,26.00
2018-08-20T21:06:23.304Z,25.90
2018-08-20T21:08:54.684Z,26.00
2018-08-20T21:11:26.845Z,26.00
2018-08-20T21:13:59.266Z,25.90
2018-08-20T21:16:31.304Z,26.00
2018-08-20T21:19:05.662Z,25.90
2018-08-20T21:21:37.724Z,25.80
2018-08-20T21:24:10.066Z,25.80
2018-08-20T21:26:41.744Z,25.80
2018-08-20T21:29:15.564Z,25.70
2018-08-20T21:31:52.285Z,25.70
2018-08-20T21:34:28.765Z,25.70
2018-08-20T21:37:00.324Z,25.70
2018-08-20T21:39:32.624Z,25.70
2018-08-20T21:42:04.685Z,25.60
2018-08-20T21:44:36.663Z,25.60
2018-08-20T21:47:24.264Z,25.60
2018-08-20T21:49:56.304Z,25.60
2018-08-20T21:52:28.204Z,25.60
2018-08-20T21:54:59.924Z,25.50
2018-08-20T21:57:32.224Z,25.50
2018-08-20T22:00:17.444Z,25.50
2018-08-20T22:02:53.828Z,25.40
2018-08-20T22:05:26.365Z,25.40
2018-08-20T22:07:59.065Z,25.40
2018-08-20T22:10:31.990Z,25.40
2018-08-20T22:13:03.584Z,25.40
2018-08-20T22:15:35.424Z,25.40
2018-08-20T22:18:07.824Z,25.50
2018-08-20T22:20:39.825Z,25.50
2018-08-20T22:23:25.019Z,25.40
2018-08-20T22:25:42.641Z,25.30
2018-08-20T22:28:14.060Z,25.30
2018-08-20T22:30:49.424Z,25.30
2018-08-20T22:33:21.804Z,25.20
2018-08-20T22:35:53.957Z,25.20
2018-08-20T22:38:27.324Z,25.20
2018-08-20T22:40:59.043Z,25.10
2018-08-20T22:43:31.285Z,25.10
2018-08-20T22:46:03.864Z,25.10
2018-08-20T22:48:35.044Z,25.10
2018-08-20T22:51:14.704Z,25.00
2018-08-20T22:53:51.843Z,25.10
2018-08-20T22:56:25.104Z,25.00
2018-08-20T22:58:59.504Z,25.00
2018-08-20T23:01:31.984Z,24.90
2018-08-20T23:04:04.506Z,25.00
2018-08-20T23:06:36.524Z,24.90
2018-08-20T23:09:22.325Z,24.90
2018-08-20T23:11:53.864Z,24.90
2018-08-20T23:14:26.188Z,24.80
2018-08-20T23:16:57.724Z,24.80
2018-08-20T23:19:31.364Z,24.80
2018-08-20T23:22:04.184Z,24.80
2018-08-20T23:24:38.403Z,24.90
2018-08-20T23:27:11.464Z,24.90
2018-08-20T23:29:43.944Z,24.90
2018-08-20T23:32:15.906Z,24.90
2018-08-20T23:34:48.604Z,24.80
2018-08-20T23:37:20.947Z,24.90
2018-08-20T23:39:53.284Z,24.90
2018-08-20T23:42:25.264Z,24.90
2018-08-20T23:44:57.724Z,24.70
2018-08-20T23:47:29.764Z,24.70
2018-08-20T23:50:02.004Z,24.60
2018-08-20T23:52:33.784Z,24.50
2018-08-20T23:55:05.584Z,24.50
2018-08-20T23:57:37.744Z,24.50
